ROMMA est une association bénévole à but non lucratif. Votre soutien est indispensable : ADHERER à ROMMA ou FAIRE un DON

Crempigny - (74, Haute-Savoie)

Albanais-Montagne des Princes (500 m)   Longitude: 05° 54' 5" E   Latitude: 45° 57' 0" N Station partenaire n°10
 

Détail journalier du     <<     >>

Température Precipitation Humidité Pression Vent Dir Rafale Dir. rafale Ensol. 20 cm au dessus du sol
Heure (°C) (mm) (%) (hPa) (km/h) (km/h) (min) (°C)
01:00 -0.109610063N10NNE0-1.1
02:00 0.109610054N10N0-0.6
03:00 -0.609710051NNE5NNE0-0.6
04:00 0.009710041NNE5NNE0-0.6
05:00 0.409710032NNE8NNE00.6
06:00 0.809710032ENE8NNE00.6
07:00 0.909610032NNO6NNO01.1
08:00 1.509410044NO15NNE01.7
09:00 0.90.49610046SSO21S01.1
10:00 2.9093100310N24ONO03.3
11:00 2.709310023SSE13NNE03.3
12:00 3.809110023NNO10N04.4
13:00 3.909010023N10NE03.9
14:00 3.70.29210017NO19NO02.8
15:00 3.3094100014ONO31NO03.3
16:00 3.60939997NO19NO03.3
17:00 3.60929987NO18NO03.3
18:00 3.70939996NO16NO03.3
19:00 3.90919989NO21ONO03.9
20:00 4.20.2909988NO16NO03.9
21:00 3.609299710NO18NO03.3
22:00 3.10959972OSO11NNO02.8
23:00 3.00959972SO11NO02.8
minuit 2.70969962SO5SO02.2

Graphique du 14-11-2019

 

Serveur OMMA